Hoppa till innehåll

METAR väder och rapporter - LTAI

Nedan listas information från vald flygplats. Andra METARs finns längre ned på sidan. Kontakta oss om någon saknas eller skriv in egen ICAO-kod.

Coded METAR: 2019/01/23 05:20 LTAI 230520Z 01004KT 9999 BKN030 08/07 Q1017 NOSIG

Weather Report @ LTAI

Issued: 23rd Jan 2019 at 06:20 CET

Wind: light breeze from the North (010 degrees) at 4 knots (5 mph, 7 kph, 2 mps, Force 2)
Visibility: 10km or more
Cloud: broken at 3000 feet
Temperature: 46F / 8C
Dewpoint: 45F / 7C
Humidity: 93%
Pressure: 1017 hPa
Weather: no significant change expected

Coded TAF: 2019/01/23 06:03 TAF LTAI 230440Z 2306/2406 VRB02KT 9999 BKN030 BECMG 2308/2312 16012KT FEW020CB BKN030 PROB40 TEMPO 2312/2316 -TSRA BECMG 2316/2320 16018G28KT FEW015CB BKN025 PROB40 2320/2324 -TSRA

Weather Forecast @ LTAI

Issued: 23rd Jan 2019 at 07:03 CET

Valid : 23rd Jan 07:00 until 24th Jan 07:00 CET

07:00 CET
Wind: variable light air at 2 knots (2 mph, 4 kph, 1 mps, Force 1)
Visibility: 10km or more
Cloud: broken at 3000 feet

09:00 CET to 13:00 CET
becoming:

Wind: moderate breeze from South-Southeast (160 degrees) at 12 knots (14 mph, 22 kph, 6 mps, Force 4)
Cloud: a few clouds at 2000 feet with cumulonimbus
Cloud: broken at 3000 feet

01:00 CET to 01:00 CET
there is a 40% chance of:


13:00 CET to 17:00 CET
Occasional

Weather: light thunderstorm with rain

17:00 CET to 21:00 CET
becoming:

Wind: fresh breeze from South-Southeast (160 degrees) at 18 knots (21 mph, 33 kph, 9 mps, Force 5) gusting to 28 knots (32 mph 52 kph, 14 mps)
Cloud: a few clouds at 1500 feet with cumulonimbus
Cloud: broken at 2500 feet

21:00 CET to 01:00 CET
there is a 40% chance of:

Weather: light thunderstorm with rain

Internet delivery of weather data is not secure or reliable enough for operational purposes.

NEVER RELY ON THE OUTPUT OF THIS SCRIPT TO MAKE DECISIONS ABOUT ANYTHING IN WHICH THE WEATHER FORECAST AND ITS INTERPRETATION COULD BE AN ISSUE OF SAFETY.

Andra intressanta METARs

Klicka på önskad rubrik nedan för att visa nuvarande väder för den platsen.

Avstånd från stationen: NO 27kmESGG - Göteborg (Landvetter)
Uppdaterad: 2019-01-23 06:20
 Vind från SO
Vind: SO 17 km/h
Temperatur: -3°C
Vindavkylning: -8°C
Daggpunkt: -5°C
Luftfuktighet: 86%
Barometer: 1005 hPa
Moln: Övervägande molnigt
Sikt: 10 km
Molninformation: Övervägande molnigt 213 m
2019/01/23 05:20 ESGG 230520Z 14009KT 9999 BKN007 M03/M05 Q1005 R21/29//95
Övervägande molnigt
Övervägande molnigt
  Visa detaljer för Göteborg (Landvetter)
Avstånd från stationen: N 28kmESGP - Göteborg (Säve)
Uppdaterad: 2017-01-02 11:20
Ej aktuell
 Vind från calm
Vind: Vindstilla
Temperatur: -2°C
Daggpunkt: -4°C
Luftfuktighet: 86%
Barometer: 1012 hPa
Moln: Klart
Sikt: 10 km
2017/01/02 10:20 ESGP 021020Z AUTO 00000KT 9999 NCD M02/M04 Q1012
Klart
Klart
  Visa detaljer för Göteborg (Säve)
Avstånd från stationen: NO 419kmESSA - Stockholm (Arlanda)
Uppdaterad: 2019-01-23 06:20
 Vind från V
Vind: V 6 km/h
Temperatur: -2°C
Daggpunkt: -3°C
Luftfuktighet: 93%
Barometer: 1007 hPa
Summering: Light snow, Dimmigt
Moln: Genommulet
Sikt: 4 km
Molninformation: Genommulet 61 m
2019/01/23 05:20 ESSA 230520Z 28003KT 4300 -SN BR OVC002 M02/M03 Q1007 R01L/71//63 R08/71//67 R01R/72//75 TEMPO 5000 BR
Light snow, Dimmigt, Genommulet
Light snow
Dimmigt
Genommulet
  Visa detaljer för Stockholm (Arlanda)
Avstånd från stationen: ONO 404kmESSB - Stockholm (Bromma)
Uppdaterad: 2019-01-23 06:20
 Vind från VSV
Vind: VSV 4 km/h
Temperatur: -2°C
Daggpunkt: -2°C
Luftfuktighet: 100%
Barometer: 1007 hPa
Summering: Dimmigt
Moln: Genommulet
Sikt: 5 km
Molninformation: Genommulet 61 m
2019/01/23 05:20 ESSB 230520Z 25002KT 5000 BR OVC002 M02/M02 Q1007 RESN R12/29//95
Dimmigt, Genommulet
Dimmigt
Genommulet
  Visa detaljer för Stockholm (Bromma)
Avstånd från stationen: ONO 323kmESKN - Stockholm (Skavsta)
Uppdaterad: 2019-01-23 06:20
 Vind från calm
Vind: Vindstilla
Temperatur: -2°C
Daggpunkt: -2°C
Luftfuktighet: 100%
Barometer: 1007 hPa
Summering: Light snow, Dimmigt
Moln: Genommulet
Sikt: 4 km
Molninformation: Genommulet 396 m
2019/01/23 05:20 ESKN 230520Z 00000KT 3500 -SN BR OVC013 M02/M02 Q1007 R26/490295
Light snow, Dimmigt, Genommulet
Light snow
Dimmigt
Genommulet
  Visa detaljer för Stockholm (Skavsta)
Avstånd från stationen: SSO 238kmESMS - Malmö flygplats (Sturup)
Uppdaterad: 2019-01-23 06:20
 Vind från SO
Vind: SO 15 km/h
Temperatur: -2°C
Vindavkylning: -7°C
Daggpunkt: -4°C
Luftfuktighet: 86%
Barometer: 1006 hPa
Moln: Övervägande molnigt
Sikt: 7 km
Molninformation: Övervägande molnigt 427 m
2019/01/23 05:20 ESMS 230520Z 13008KT 7000 BKN014 M02/M04 Q1006 R17/19//95
Övervägande molnigt
Övervägande molnigt
  Visa detaljer för Malmö flygplats (Sturup)
Avstånd från stationen: O 382kmESSV - Visby flygplats
Uppdaterad: 2019-01-23 06:20
 Vind från SSO
Vind: SSO 6 km/h
Temperatur: 0°C
Daggpunkt: -1°C
Luftfuktighet: 93%
Barometer: 1008 hPa
Moln: Övervägande molnigt
Sikt: 10 km
Molninformation: Delvis molnigt 518 m
Övervägande molnigt 853 m
2019/01/23 05:20 ESSV 230520Z 16003KT 9999 SCT017 BKN028 M00/M01 Q1008 R21/79//43
Övervägande molnigt
Övervägande molnigt
  Visa detaljer för Visby flygplats
Avstånd från stationen: NNO 92kmESGT - Trollhättan
Uppdaterad: 2019-01-22 23:20
Ej aktuell
 Vind från SSO
Vind: SSO 6 km/h
Temperatur: -4°C
Daggpunkt: -5°C
Luftfuktighet: 93%
Barometer: 1007 hPa
Moln: Genommulet
Sikt: 10 km
Molninformation: Genommulet 1433 m
2019/01/22 22:20 ESGT 222220Z AUTO 16003KT 9999 OVC047/// M04/M05 Q1007
Genommulet
Genommulet
  Visa detaljer för Trollhättan
Avstånd från stationen: ONO 129kmESGJ - Jönköpings flygplats
Uppdaterad: 2019-01-23 06:20
 Vind från SO
Vind: SO 4 km/h
Temperatur: -5°C
Daggpunkt: -6°C
Luftfuktighet: 93%
Barometer: 1006 hPa
Summering: Klart
Sikt: mer än 10 km
2019/01/23 05:20 ESGJ 230520Z 13002KT CAVOK M05/M06 Q1006
Klart
Klart
  Visa detaljer för Jönköpings flygplats
Avstånd från stationen: NNO 229kmESOK - Karlstad
Uppdaterad: 2019-01-23 06:20
 Vind från ONO
Vind: ONO 7 km/h
Temperatur: -4°C
Vindavkylning: -7°C
Daggpunkt: -4°C
Luftfuktighet: 100%
Barometer: 1006 hPa
Moln: Övervägande molnigt
Sikt: 8 km
Molninformation: Delvis molnigt 91 m
Övervägande molnigt 1311 m
2019/01/23 05:20 ESOK 230520Z 07004KT 8000 SCT003 BKN043 M04/M04 Q1006
Övervägande molnigt
Övervägande molnigt
  Visa detaljer för Karlstad
Avstånd från stationen: N 643kmESNZ - Östersund (Frösön)
Uppdaterad: 2019-01-23 06:20
 Vind från V
Vind: V 6 km/h
Temperatur: -13°C
Daggpunkt: -15°C
Luftfuktighet: 85%
Barometer: 1002 hPa
Summering: Light Snow
Moln: Genommulet
Sikt: 10 km
Molninformation: Genommulet 91 m
2019/01/23 05:20 ESNZ 230520Z 28003KT 9999 -SN OVC003 M13/M15 Q1002
Light snow, Genommulet
Light snow
Genommulet
  Visa detaljer för Östersund (Frösön)
Avstånd från stationen: SSO 216kmEKCH - Köpenhamn (Kastrup)
Uppdaterad: 2019-01-23 06:20
 Vind från SSO
Vind: SSO 30 km/h
Temperatur: -1°C
Vindavkylning: -8°C
Daggpunkt: -4°C
Luftfuktighet: 80%
Barometer: 1006 hPa
Moln: Övervägande molnigt
Sikt: 9 km
Molninformation: Övervägande molnigt 518 m
2019/01/23 05:20 EKCH 230520Z 15016KT 9000 BKN017 M01/M04 Q1006 R04L/310178 R04R/310181 R12/310186 NOSIG
Övervägande molnigt
Övervägande molnigt
  Visa detaljer för Köpenhamn (Kastrup)
Avstånd från stationen: SV 263kmEKBI - Billund Airport
Uppdaterad: 2019-01-23 06:20
 Vind från SO
Vind: SO 9 km/h
Temperatur: -3°C
Vindavkylning: -7°C
Daggpunkt: -5°C
Luftfuktighet: 86%
Barometer: 1001 hPa
Moln: Genommulet
Sikt: 8 km
Molninformation: Genommulet 457 m
2019/01/23 05:20 EKBI 230520Z AUTO 13005KT 8000 OVC015/// M03/M05 Q1001
Genommulet
Genommulet
  Visa detaljer för Billund Airport
Avstånd från stationen: N 302kmENGM - Oslo (Gardermoen)
Uppdaterad: 2019-01-23 06:20
 Vind från NNO
Vind: NNO 4 km/h
Temperatur: -5°C
Daggpunkt: -6°C
Luftfuktighet: 93%
Barometer: 1005 hPa
Moln: Genommulet
Sikt: 9 km
Molninformation: Genommulet 152 m
2019/01/23 05:20 ENGM 230520Z 02002KT 9000 OVC005 M05/M06 Q1005 TEMPO OVC004
Genommulet
Genommulet
  Visa detaljer för Oslo (Gardermoen)
Avstånd från stationen: NO 540kmEFMA - Mariehamn / Åland
Uppdaterad: 2019-01-23 06:20
 Vind från varierande
Vind: varierande 2 km/h
Temperatur: -4°C
Daggpunkt: -5°C
Luftfuktighet: 93%
Barometer: 1007 hPa
Moln: Övervägande molnigt
Sikt: 10 km
Molninformation: Delvis molnigt 1280 m
Övervägande molnigt 1951 m
2019/01/23 05:20 EFMA 230520Z AUTO VRB01KT 9999 SCT042 BKN064 M04/M05 Q1007
Övervägande molnigt
Övervägande molnigt
  Visa detaljer för Mariehamn / Åland
Avstånd från stationen: S 558kmEDDT - Berlin (Tegel), Germany
Uppdaterad: 2019-01-23 06:20
 Vind från O
Vind: O 19 km/h
Temperatur: -6°C
Vindavkylning: -13°C
Daggpunkt: -8°C
Luftfuktighet: 86%
Barometer: 1005 hPa
Moln: Övervägande molnigt
Sikt: 6 km
Molninformation: Övervägande molnigt 213 m
2019/01/23 05:20 EDDT 230520Z 10010KT 070V130 6000 BKN007 M06/M08 Q1005 TEMPO 3500 BR
Övervägande molnigt
Övervägande molnigt
  Visa detaljer för Berlin (Tegel), Germany
Avstånd från stationen: SV 737kmEHAM - Amsterdam (Schiphol)
Uppdaterad: 2019-01-23 06:25
 Vind från O
Vind: O 9 km/h
Temperatur: 0°C
Vindavkylning: -3°C
Daggpunkt: -2°C
Luftfuktighet: 87%
Barometer: 997 hPa
Moln: Övervägande molnigt
Sikt: 8 km
Molninformation: Några få moln 244 m
Övervägande molnigt 274 m
2019/01/23 05:25 EHAM 230525Z 10005KT 070V130 8000 FEW008 BKN009 M00/M02 Q0997 BECMG 7000 FEW008 BKN010
Övervägande molnigt
Övervägande molnigt
  Visa detaljer för Amsterdam (Schiphol)
Avstånd från stationen: ONO 808kmEFHK - Helsingfors (Vantaa)
Uppdaterad: 2019-01-23 06:20
 Vind från S
Vind: S 17 km/h
Temperatur: -3°C
Vindavkylning: -8°C
Daggpunkt: -3°C
Luftfuktighet: 100%
Barometer: 1008 hPa
Summering: Snö
Moln: Genommulet
Sikt: 1 km
Molninformation: Genommulet 213 m
2019/01/23 05:20 EFHK 230520Z 18009KT 1200 R04R/P1500U R15/P1500N R22L/P1500D R04L/P1500U SN VV007 M03/M03 Q1008 TEMPO 2500 -SN
Snö, Genommulet
Snö
Genommulet
  Visa detaljer för Helsingfors (Vantaa)
Avstånd från stationen: SSV 537kmEDDW - Bremen
Uppdaterad: 2019-01-23 06:20
 Vind från OSO
Vind: OSO 11 km/h
Temperatur: -6°C
Vindavkylning: -11°C
Daggpunkt: -8°C
Luftfuktighet: 86%
Barometer: 1001 hPa
Moln: Några få moln
Sikt: 8 km
Molninformation: Några få moln 792 m
2019/01/23 05:20 EDDW 230520Z 11006KT 8000 FEW026 M06/M08 Q1001 NOSIG
Några få moln
Några få moln
  Visa detaljer för Bremen
Avstånd från stationen: SSV 861kmEDDF - Frankfurt am Main
Uppdaterad: 2019-01-23 06:20
 Vind från O
Vind: O 13 km/h
Temperatur: -2°C
Vindavkylning: -7°C
Daggpunkt: -7°C
Luftfuktighet: 69%
Barometer: 999 hPa
Moln: Övervägande molnigt
Sikt: 10 km
Molninformation: Övervägande molnigt 701 m
2019/01/23 05:20 EDDF 230520Z 09007KT 9999 BKN023 M02/M07 Q0999 NOSIG
Övervägande molnigt
Övervägande molnigt
  Visa detaljer för Frankfurt am Main
Avstånd från stationen: SV 880kmEBBR - Bryssel international
Uppdaterad: 2019-01-23 06:20
 Vind från OSO
Vind: OSO 7 km/h
Temperatur: -2°C
Vindavkylning: -6°C
Daggpunkt: -3°C
Luftfuktighet: 93%
Barometer: 995 hPa
Moln: Övervägande molnigt
Sikt: 8 km
Molninformation: Några få moln 183 m
Övervägande molnigt 671 m
2019/01/23 05:20 EBBR 230520Z 12004KT 8000 FEW006 BKN022 M02/M03 Q0995 TEMPO 3000 -SN BKN006
Övervägande molnigt
Övervägande molnigt
  Visa detaljer för Bryssel international
Avstånd från stationen: SV 738kmEHAM - Amsterdam (Schiphol)
Uppdaterad: 2019-01-23 06:25
 Vind från O
Vind: O 9 km/h
Temperatur: 0°C
Vindavkylning: -3°C
Daggpunkt: -2°C
Luftfuktighet: 87%
Barometer: 997 hPa
Moln: Övervägande molnigt
Sikt: 8 km
Molninformation: Några få moln 244 m
Övervägande molnigt 274 m
2019/01/23 05:25 EHAM 230525Z 10005KT 070V130 8000 FEW008 BKN009 M00/M02 Q0997 BECMG 7000 FEW008 BKN010
Övervägande molnigt
Övervägande molnigt
  Visa detaljer för Amsterdam (Schiphol)
Avstånd från stationen: SV 1044kmEGLL - London (Heathrow)
Uppdaterad: 2019-01-23 06:20
 Vind från N
Vind: N 9 km/h
Temperatur: 1°C
Vindavkylning: -2°C
Daggpunkt: 0°C
Luftfuktighet: 93%
Barometer: 998 hPa
Moln: Övervägande molnigt
Sikt: 8 km
Molninformation: Övervägande molnigt 305 m
2019/01/23 05:20 EGLL 230520Z AUTO 35005KT 320V030 8000 BKN010 01/M00 Q0998 TEMPO BKN008
Övervägande molnigt
Övervägande molnigt
  Visa detaljer för London (Heathrow)
Avstånd från stationen: SV 1132kmLFPG - Paris (Charles de Gaulle)
Uppdaterad: 2019-01-23 06:30
 Vind från V
Vind: V 6 km/h
Temperatur: 0°C
Daggpunkt: 0°C
Luftfuktighet: 100%
Barometer: 994 hPa
Moln: Övervägande molnigt
Sikt: 10 km
Molninformation: Övervägande molnigt 152 m
Övervägande molnigt 1615 m
Övervägande molnigt 3658 m
2019/01/23 05:30 LFPG 230530Z 26003KT 9999 BKN005 BKN053 BKN120 00/M00 Q0994 R26/59//50 NOSIG
Övervägande molnigt
Övervägande molnigt
  Visa detaljer för Paris (Charles de Gaulle)
Avstånd från stationen: SSV 1142kmLSZH - Zürich Airport
Uppdaterad: 2019-01-23 06:20
 Vind från SO
Vind: SO 7 km/h
Temperatur: -5°C
Vindavkylning: -8°C
Daggpunkt: -7°C
Luftfuktighet: 86%
Barometer: 997 hPa
Moln: Delvis molnigt
Sikt: 8 km
Molninformation: Några få moln 335 m
Delvis molnigt 2438 m
2019/01/23 05:20 LSZH 230520Z 13004KT 8000 FEW011 SCT080 M05/M07 Q0997 NOSIG
Delvis molnigt
Delvis molnigt
  Visa detaljer för Zürich Airport
Avstånd från stationen: S 1749kmLIRF - Rome Airport (Fiumicino - Leonardo da Vinci)
Uppdaterad: 2019-01-23 06:20
 Vind från SO
Vind: SO 9 km/h
Temperatur: 5°C
Vindavkylning: 3°C
Daggpunkt: 3°C
Luftfuktighet: 87%
Barometer: 999 hPa
Summering: Klart
Sikt: mer än 10 km
2019/01/23 05:20 LIRF 230520Z 13005KT 090V170 CAVOK 05/03 Q0999 NOSIG
Klart
Klart
  Visa detaljer för Rome Airport (Fiumicino - Leonardo da Vinci)
Avstånd från stationen: SO 2679kmLTAI - Antalya
Uppdaterad: 2019-01-23 06:20
 Vind från N
Vind: N 7 km/h
Temperatur: 8°C
Vindavkylning: 7°C
Daggpunkt: 7°C
Luftfuktighet: 93%
Barometer: 1017 hPa
Moln: Övervägande molnigt
Sikt: 10 km
Molninformation: Övervägande molnigt 914 m
2019/01/23 05:20 LTAI 230520Z 01004KT 9999 BKN030 08/07 Q1017 NOSIG
Övervägande molnigt
Övervägande molnigt
  Visa detaljer för Antalya
Avstånd från stationen: VSV 6074kmKJFK - New Your (JFK)
Uppdaterad: 2019-01-23 05:51
 Vind från SV
Vind: SV 19 km/h
Temperatur: -2°C
Vindavkylning: -8°C
Daggpunkt: -8°C
Luftfuktighet: 64%
Barometer: 1035.2 hPa
Moln: Genommulet
Sikt: 16 km
Molninformation: Delvis molnigt 6401 m
Genommulet 7925 m
2019/01/23 04:51 KJFK 230451Z 22010KT 10SM SCT210 OVC260 M02/M08 A3057 RMK AO2 SLP352 T10171083 410061100
Genommulet
Genommulet
  Visa detaljer för New Your (JFK)
Avstånd från stationen: VSV 8848kmKLAX - Los Angeles International Airport
Uppdaterad: 2019-01-23 05:53
 Vind från N
Vind: N 13 km/h
Temperatur: 15°C
Daggpunkt: -11°C
Luftfuktighet: 16%
Barometer: 1026.1 hPa
Moln: Några få moln
Sikt: 16 km
Molninformation: Några få moln 7620 m
2019/01/23 04:53 KLAX 230453Z 35007KT 10SM FEW250 15/M11 A3030 RMK AO2 SLP261 T01501106
Några få moln
Några få moln
  Visa detaljer för Los Angeles International Airport
Avstånd från stationen: SO 4968kmOMDB - Dubai International Airport
Uppdaterad: 2019-01-23 06:00
 Vind från S
Vind: S 9 km/h
Temperatur: 17°C
Daggpunkt: 12°C
Luftfuktighet: 73%
Barometer: 1018 hPa
Summering: Klart
Sikt: mer än 10 km
2019/01/23 05:00 OMDB 230500Z 18005KT 140V220 CAVOK 17/12 Q1018 NOSIG
Klart
Klart
  Visa detaljer för Dubai International Airport
Avstånd från stationen: OSO 8570kmRJTT - Tokyo International Airport
Uppdaterad: 2019-01-23 06:30
 Vind från S
Vind: S 28 km/h
Temperatur: 11°C
Daggpunkt: 1°C
Luftfuktighet: 50%
Barometer: 1010 hPa
Moln: Några få moln
Sikt: 10 km
Molninformation: Några få moln 914 m
2019/01/23 05:30 RJTT 230530Z 19015KT 9999 FEW030 11/01 Q1010 NOSIG RMK 1CU030 A2982
Några få moln
Några få moln
  Visa detaljer för Tokyo International Airport
Avstånd från stationen: OSO 7125kmZBAA - Peking (Beijing Capital)
Uppdaterad: 2019-01-23 06:30
 Vind från O
Vind: O 7 km/h
Temperatur: 11°C
Daggpunkt: -18°C
Luftfuktighet: 11%
Barometer: 1024 hPa
Summering: Klart
Sikt: mer än 10 km
2019/01/23 05:30 ZBAA 230530Z 09002MPS 040V150 CAVOK 11/M18 Q1024 NOSIG
Klart
Klart
  Visa detaljer för Peking (Beijing Capital)
VÄDER KURIOSA -  Weather TermsWind Chill - An apparent temperature that describes the combined effect of wind and low temperature on exposed skin.